Time;durP1;ratioP1;P1;durP2;ratioP2;P2;SDS_P1;SDS_P2;PMS_P1;PMS_P2;Temp;Humidity;BMP_temperature;BMP_pressure;BME280_temperature;BME280_humidity;BME280_pressure;Samples;Min_cycle;Max_cycle;Signal;HPM_P1;HPM_P2
2021/11/27 00:01:51;;;;;;;7.77;6.40;;;;;;;1.57;76.75;97419.19;4921298;29;20167;-84
2021/11/27 00:04:23;;;;;;;9.20;6.83;;;;;;;1.61;77.21;97427.47;5098727;23;20242;-83
2021/11/27 00:07:37;;;;;;;8.53;6.40;;;;;;;1.52;78.02;97415.56;4912814;29;20182;-84
2021/11/27 00:10:13;;;;;;;8.40;6.90;;;;;;;1.44;77.14;97398.19;4907675;29;20228;-84
2021/11/27 00:13:22;;;;;;;8.87;7.97;;;;;;;1.48;77.24;97393.28;5036939;23;20242;-83
2021/11/27 00:15:51;;;;;;;9.30;7.13;;;;;;;1.44;76.85;97397.38;5012062;23;20234;-84
2021/11/27 00:19:01;;;;;;;9.00;7.00;;;;;;;1.47;76.99;97397.75;4908405;29;20298;-84
2021/11/27 00:24:48;;;;;;;8.00;6.97;;;;;;;1.30;78.37;97400.13;4942394;23;20241;-84
2021/11/27 00:27:43;;;;;;;10.10;7.30;;;;;;;1.31;78.44;97400.91;5141333;23;20246;-84
2021/11/27 00:30:38;;;;;;;10.10;7.80;;;;;;;1.51;79.20;97442.97;5116100;23;20242;-83
2021/11/27 00:33:13;;;;;;;9.23;7.20;;;;;;;1.43;79.40;97420.31;4873798;29;20235;-83
2021/11/27 00:35:57;;;;;;;9.13;7.67;;;;;;;1.42;79.17;97418.69;4977144;23;20234;-85
2021/11/27 00:39:22;;;;;;;12.97;9.70;;;;;;;1.35;79.70;97409.22;4906598;29;20211;-84
2021/11/27 00:42:54;;;;;;;12.70;10.23;;;;;;;1.44;80.38;97424.59;4923364;29;20199;-85
2021/11/27 00:49:16;;;;;;;12.03;10.10;;;;;;;1.41;80.60;97429.47;5513626;23;20215;31
2021/11/27 00:52:41;;;;;;;12.13;9.87;;;;;;;1.41;80.69;97422.34;4847501;29;20217;-83
2021/11/27 01:01:43;;;;;;;12.63;9.83;;;;;;;1.37;80.83;97415.91;5355907;23;20242;-84
2021/11/27 01:07:17;;;;;;;13.63;10.23;;;;;;;1.26;81.97;97406.84;5032906;23;20271;-84
2021/11/27 01:10:30;;;;;;;12.70;10.00;;;;;;;1.15;82.12;97391.72;5210925;23;20239;-84
2021/11/27 01:14:01;;;;;;;12.80;9.67;;;;;;;1.11;82.23;97389.72;5016966;23;20255;-84
2021/11/27 01:20:01;;;;;;;10.73;8.83;;;;;;;1.05;82.29;97380.03;5204531;23;20259;-83
2021/11/27 01:22:42;;;;;;;13.40;9.67;;;;;;;1.01;82.63;97382.28;5152529;23;20306;-83
2021/11/27 01:25:35;;;;;;;11.80;8.70;;;;;;;1.09;82.51;97394.38;4922816;29;20174;-84
2021/11/27 01:28:40;;;;;;;11.23;8.10;;;;;;;1.05;82.72;97388.75;4905748;23;20210;-84
2021/11/27 01:31:45;;;;;;;11.33;8.47;;;;;;;1.18;83.39;97407.09;4960750;23;20243;-85
2021/11/27 01:34:47;;;;;;;10.07;8.03;;;;;;;1.15;83.42;97422.56;4923051;29;20199;-84
2021/11/27 01:38:00;;;;;;;10.50;7.97;;;;;;;1.01;83.40;97395.47;4912892;29;20238;-84
2021/11/27 01:44:04;;;;;;;9.17;7.67;;;;;;;0.96;83.81;97408.47;4923564;23;20242;-83
2021/11/27 01:47:10;;;;;;;11.23;8.13;;;;;;;0.79;83.46;97376.53;4981511;23;20218;31
2021/11/27 01:49:43;;;;;;;11.07;7.93;;;;;;;0.94;83.55;97394.69;4891194;29;20239;-83
2021/11/27 01:52:43;;;;;;;11.03;7.80;;;;;;;0.93;83.58;97379.91;4903461;29;20227;-83
2021/11/27 01:55:28;;;;;;;10.47;7.80;;;;;;;0.76;83.72;97355.06;4897304;29;20215;-83
2021/11/27 01:58:19;;;;;;;11.57;8.47;;;;;;;0.79;84.00;97365.19;4930876;23;20227;-83
2021/11/27 02:01:16;;;;;;;13.83;8.70;;;;;;;0.77;83.64;97359.31;4894556;29;20255;-83
2021/11/27 02:04:23;;;;;;;12.43;8.37;;;;;;;0.82;83.96;97367.41;5004318;23;20237;-83
2021/11/27 02:07:37;;;;;;;12.33;8.57;;;;;;;0.94;84.31;97394.69;4924056;23;20281;31
2021/11/27 02:10:14;;;;;;;11.67;8.53;;;;;;;0.64;84.48;97354.94;4875612;29;20294;-83
2021/11/27 02:13:29;;;;;;;12.47;8.83;;;;;;;0.85;84.29;97390.69;5309404;23;20234;31
2021/11/27 02:16:02;;;;;;;12.30;9.00;;;;;;;0.60;84.39;97352.94;4889162;23;20185;-82
2021/11/27 02:19:09;;;;;;;11.87;9.27;;;;;;;0.64;84.38;97348.84;5014274;23;20221;-83
2021/11/27 02:22:02;;;;;;;12.10;8.60;;;;;;;0.60;84.31;97339.75;5026911;23;20242;-83
2021/11/27 02:24:58;;;;;;;11.67;8.77;;;;;;;0.66;84.01;97347.63;4897335;29;20222;-83
2021/11/27 02:28:20;;;;;;;11.33;9.47;;;;;;;0.73;84.20;97364.22;4927155;23;20227;-83
2021/11/27 02:31:11;;;;;;;11.53;8.73;;;;;;;0.45;84.12;97326.88;4936693;23;20214;-83
2021/11/27 02:33:55;;;;;;;13.30;8.87;;;;;;;0.47;84.24;97329.31;4951862;23;20225;-83
2021/11/27 02:37:14;;;;;;;13.10;8.70;;;;;;;0.70;84.37;97367.25;4968613;23;20211;31
2021/11/27 02:40:30;;;;;;;10.50;9.00;;;;;;;0.43;84.63;97324.44;4951817;23;20311;-83
2021/11/27 02:43:27;;;;;;;11.13;8.80;;;;;;;0.60;84.45;97351.13;4935144;23;20211;-82
2021/11/27 02:46:52;;;;;;;11.40;9.00;;;;;;;0.65;84.74;97363.66;1872752;23;20437;-85
2021/11/27 02:50:35;;;;;;;12.17;9.07;;;;;;;0.39;84.79;97332.97;4919938;29;20281;-83
2021/11/27 02:53:41;;;;;;;10.97;8.73;;;;;;;0.40;84.75;97324.88;4920861;29;20238;-84
2021/11/27 03:06:02;;;;;;;10.03;8.00;;;;;;;0.71;85.33;97363.59;5566203;23;20220;31
2021/11/27 03:09:36;;;;;;;9.53;7.70;;;;;;;0.49;84.72;97343.88;4852454;29;20240;-85
2021/11/27 03:12:49;;;;;;;9.50;8.20;;;;;;;0.45;85.16;97337.41;5130931;23;20230;-84
2021/11/27 03:19:18;;;;;;;8.00;7.17;;;;;;;0.58;85.23;97358.41;5106956;23;20262;-85
2021/11/27 03:22:19;;;;;;;8.23;6.97;;;;;;;0.57;84.89;97359.44;5285400;23;20302;-84
2021/11/27 03:31:36;;;;;;;9.77;8.10;;;;;;;0.69;84.90;97368.28;5614778;23;21285;-84
2021/11/27 03:38:18;;;;;;;8.97;7.17;;;;;;;0.92;84.80;97370.38;5075735;23;20245;31
2021/11/27 03:45:27;;;;;;;7.87;6.87;;;;;;;0.75;84.90;97338.44;5007105;23;20298;-83
2021/11/27 03:48:40;;;;;;;7.80;6.77;;;;;;;0.85;84.42;97357.22;5056133;23;20219;-83
2021/11/27 03:57:36;;;;;;;7.73;6.53;;;;;;;0.79;84.57;97359.94;5162665;23;20266;-83
2021/11/27 04:01:00;;;;;;;7.40;6.30;;;;;;;0.80;85.00;97362.31;5054834;23;20250;-83
2021/11/27 04:05:11;;;;;;;8.07;6.27;;;;;;;1.00;85.06;97385.13;4911470;29;20234;-84
2021/11/27 04:15:28;;;;;;;8.17;6.43;;;;;;;0.78;84.75;97348.56;5286383;23;20505;-83
2021/11/27 04:22:37;;;;;;;7.40;6.20;;;;;;;1.06;84.74;97384.28;5321492;23;20181;31
2021/11/27 04:32:31;;;;;;;6.67;5.97;;;;;;;0.88;84.92;97361.28;5082208;23;20224;-86
2021/11/27 05:03:44;;;;;;;7.67;6.83;;;;;;;0.74;85.02;97368.47;5874843;23;20235;-84
2021/11/27 06:51:52;;;;;;;7.57;6.73;;;;;;;0.72;87.06;97423.22;4882070;29;20203;-84
2021/11/27 06:59:03;;;;;;;8.60;6.77;;;;;;;0.69;86.13;97418.38;5948404;23;20662;-83
2021/11/27 07:34:30;;;;;;;7.45;6.75;;;;;;;1.41;85.31;97405.72;6006333;23;20196;31
2021/11/27 07:44:02;;;;;;;7.73;6.93;;;;;;;1.97;85.73;97440.75;5128523;23;20231;-83
2021/11/27 07:46:53;;;;;;;9.83;7.90;;;;;;;1.92;85.49;97422.09;4882717;29;20241;-83
2021/11/27 07:50:06;;;;;;;12.73;9.57;;;;;;;2.19;86.00;97431.38;4871099;29;20228;-83
2021/11/27 07:53:19;;;;;;;12.47;9.63;;;;;;;2.39;85.90;97440.94;4862601;29;20239;-82
2021/11/27 07:55:48;;;;;;;18.50;13.47;;;;;;;2.47;85.41;97438.78;4896057;23;20263;-82
2021/11/27 07:58:15;;;;;;;22.07;14.93;;;;;;;2.63;85.57;97421.53;4878551;29;20266;-82
2021/11/27 08:00:44;;;;;;;23.60;16.23;;;;;;;2.71;85.45;97423.09;4863978;29;20238;-82
2021/11/27 08:03:14;;;;;;;20.10;16.33;;;;;;;2.69;84.84;97410.06;4889768;29;20235;-81
2021/11/27 08:05:42;;;;;;;11.07;9.97;;;;;;;2.83;84.57;97422.09;4874666;29;20235;-81
2021/11/27 08:08:10;;;;;;;13.27;11.97;;;;;;;2.86;84.30;97419.00;4870087;23;20240;-82
2021/11/27 08:10:36;;;;;;;22.87;20.80;;;;;;;2.91;84.47;97410.38;4855453;29;20288;-81
2021/11/27 08:13:06;;;;;;;9.70;8.80;;;;;;;3.02;83.66;97422.84;4854179;29;20208;-81
2021/11/27 08:15:33;;;;;;;6.47;5.87;;;;;;;3.04;83.69;97403.06;4868840;29;20252;-82
2021/11/27 08:18:01;;;;;;;10.07;9.10;;;;;;;3.09;82.70;97405.03;4837806;29;20263;-82
2021/11/27 08:20:34;;;;;;;49.17;44.07;;;;;;;3.16;82.72;97402.31;4869604;29;20645;-82
2021/11/27 08:23:05;;;;;;;52.17;46.57;;;;;;;3.17;82.82;97401.28;4868614;29;20299;-82
2021/11/27 08:25:33;;;;;;;11.73;10.73;;;;;;;3.21;81.83;97403.25;4870770;29;20524;-82
2021/11/27 08:28:02;;;;;;;7.37;6.77;;;;;;;3.18;82.11;97397.56;4854562;29;20232;-82
2021/11/27 08:30:32;;;;;;;5.30;4.80;;;;;;;3.24;81.79;97402.78;4852986;29;20240;-82
2021/11/27 08:33:01;;;;;;;5.03;4.53;;;;;;;3.20;81.61;97400.81;4871760;29;20252;-82
2021/11/27 08:35:32;;;;;;;5.73;4.93;;;;;;;3.17;81.71;97401.28;4873094;29;20265;-82
2021/11/27 08:37:59;;;;;;;5.43;4.83;;;;;;;3.10;81.89;97382.84;4872989;29;20232;-81
2021/11/27 08:40:29;;;;;;;5.07;4.57;;;;;;;3.21;80.58;97399.78;4905303;23;20346;-81
2021/11/27 08:43:01;;;;;;;4.50;4.10;;;;;;;3.23;80.89;97384.47;4914077;29;20289;-82
2021/11/27 08:45:30;;;;;;;4.67;4.27;;;;;;;3.29;80.05;97396.81;4909923;29;20321;-82
2021/11/27 08:47:59;;;;;;;5.30;4.77;;;;;;;3.29;80.51;97392.31;4896091;29;20230;-82
2021/11/27 08:50:26;;;;;;;6.20;5.60;;;;;;;3.48;80.13;97401.00;4913064;29;20345;-82
2021/11/27 08:52:55;;;;;;;5.77;5.27;;;;;;;3.46;80.27;97390.63;4932892;29;20202;-81
2021/11/27 08:55:26;;;;;;;4.60;4.20;;;;;;;3.49;80.40;97395.47;4916764;29;20232;-81
2021/11/27 08:57:56;;;;;;;5.03;4.53;;;;;;;3.52;79.42;97391.56;4930612;29;20221;-82
2021/11/27 09:00:23;;;;;;;6.83;6.23;;;;;;;3.51;79.64;97401.34;4935768;29;20281;-82
2021/11/27 09:02:54;;;;;;;6.03;5.47;;;;;;;3.47;79.28;97402.81;4931985;29;20264;-81
2021/11/27 09:05:21;;;;;;;6.33;5.73;;;;;;;3.54;79.57;97402.72;4913665;29;20226;-81
2021/11/27 09:07:50;;;;;;;5.60;5.10;;;;;;;3.64;79.18;97402.94;4912115;29;20218;-81
2021/11/27 09:10:20;;;;;;;6.00;5.40;;;;;;;3.65;79.18;97401.09;4930373;23;22777;-81
2021/11/27 09:12:49;;;;;;;17.73;16.00;;;;;;;3.50;78.82;97386.47;4898714;29;20234;-81
2021/11/27 09:15:16;;;;;;;39.07;35.47;;;;;;;3.58;78.77;97388.00;4896368;29;20274;-81
2021/11/27 09:17:45;;;;;;;13.13;11.83;;;;;;;3.70;78.93;97393.28;4900454;29;20610;-81
2021/11/27 09:20:12;;;;;;;9.57;8.60;;;;;;;3.68;78.84;97398.84;4897154;29;20222;-80
2021/11/27 09:22:41;;;;;;;6.90;6.00;;;;;;;3.67;78.05;97391.91;4919311;24;20245;-81
2021/11/27 09:25:20;;;;;;;6.70;6.10;;;;;;;3.68;78.59;97360.94;4897754;24;20239;-82
2021/11/27 09:27:50;;;;;;;5.40;4.90;;;;;;;3.75;78.57;97380.16;4893953;29;20239;-81
2021/11/27 09:30:19;;;;;;;4.83;4.43;;;;;;;3.74;78.84;97400.53;4910177;29;20537;-81
2021/11/27 09:32:48;;;;;;;3.60;3.30;;;;;;;3.65;78.42;97387.88;4928454;23;20235;-81
2021/11/27 09:35:27;;;;;;;3.90;2.97;;;;;;;3.67;77.86;97393.75;4909640;29;20274;-81
2021/11/27 09:37:57;;;;;;;3.30;3.00;;;;;;;3.63;77.51;97395.25;4893769;29;20221;-82
2021/11/27 09:40:25;;;;;;;3.13;2.83;;;;;;;3.56;77.72;97400.66;4903889;23;20320;-81
2021/11/27 09:42:56;;;;;;;3.20;3.00;;;;;;;3.53;77.64;97398.47;4912955;29;20260;-82
2021/11/27 09:45:28;;;;;;;3.27;2.97;;;;;;;3.54;77.58;97403.53;4929104;29;20293;-81
2021/11/27 09:47:55;;;;;;;3.20;2.90;;;;;;;3.45;78.15;97396.94;4929081;29;20281;-82
2021/11/27 09:50:28;;;;;;;3.57;3.27;;;;;;;3.53;77.32;97401.13;4937602;23;20234;-82
2021/11/27 09:52:56;;;;;;;3.30;3.00;;;;;;;3.38;77.74;97395.44;4894537;29;20234;-82
2021/11/27 09:55:23;;;;;;;3.37;3.07;;;;;;;3.35;77.92;97407.31;4894091;29;20298;-82
2021/11/27 09:57:52;;;;;;;3.87;3.53;;;;;;;3.36;77.45;97408.13;4909645;29;20243;-82
2021/11/27 10:00:22;;;;;;;3.87;3.43;;;;;;;3.36;77.74;97408.91;4926705;23;20242;-81
2021/11/27 10:02:59;;;;;;;3.47;3.17;;;;;;;3.40;77.56;97393.38;4896287;29;20293;-82
2021/11/27 10:05:29;;;;;;;4.07;3.60;;;;;;;3.45;77.11;97404.88;4910076;29;20313;-82
2021/11/27 10:07:56;;;;;;;3.70;3.40;;;;;;;3.44;77.85;97399.84;4911009;29;20325;-81
2021/11/27 10:10:25;;;;;;;4.13;3.73;;;;;;;3.51;77.10;97406.63;4876879;29;20325;-81
2021/11/27 10:12:55;;;;;;;4.07;3.60;;;;;;;3.45;77.26;97393.50;4877291;29;20257;-81
2021/11/27 10:15:22;;;;;;;5.03;4.53;;;;;;;3.49;77.56;97399.97;4908532;24;20322;-81
2021/11/27 10:17:48;;;;;;;5.50;4.77;;;;;;;3.44;77.30;97397.19;4925628;29;20233;-81
2021/11/27 10:20:18;;;;;;;4.07;3.60;;;;;;;3.45;77.46;97410.19;4893887;29;20520;-84
2021/11/27 10:22:53;;;;;;;5.63;4.57;;;;;;;3.31;77.65;97408.78;4909840;29;20234;-81
2021/11/27 10:25:41;;;;;;;5.70;5.10;;;;;;;3.36;77.83;97416.06;4930607;29;20237;-81
2021/11/27 10:28:14;;;;;;;8.23;7.43;;;;;;;3.37;77.82;97410.50;4934327;29;20234;-81
2021/11/27 10:31:00;;;;;;;4.93;4.30;;;;;;;3.42;77.59;97409.84;4944140;23;20233;-81
2021/11/27 10:34:20;;;;;;;4.10;3.70;;;;;;;3.36;77.91;97406.25;4934042;23;20222;-81
2021/11/27 10:37:39;;;;;;;3.90;3.50;;;;;;;3.39;76.67;97400.53;4900036;29;20223;-80
2021/11/27 10:40:41;;;;;;;4.23;3.83;;;;;;;3.45;77.40;97398.81;4904203;29;20243;-81
2021/11/27 10:43:12;;;;;;;4.33;3.93;;;;;;;3.37;77.81;97376.09;4902611;29;20212;-82
2021/11/27 10:45:41;;;;;;;3.63;3.33;;;;;;;3.60;76.70;97391.19;4929824;23;20302;-81
2021/11/27 10:48:26;;;;;;;4.30;3.90;;;;;;;3.57;77.07;97383.72;4933533;23;20303;-80
2021/11/27 10:51:10;;;;;;;4.63;4.03;;;;;;;3.38;77.03;97351.25;4935081;23;20219;-81
2021/11/27 10:54:16;;;;;;;3.57;3.27;;;;;;;3.53;76.91;97351.63;4909676;24;20219;-81
2021/11/27 10:56:53;;;;;;;3.30;2.90;;;;;;;3.73;76.43;97367.16;5008490;23;20269;-81
2021/11/27 10:59:29;;;;;;;3.20;2.90;;;;;;;3.85;75.34;97359.19;4912494;23;20226;-81
2021/11/27 11:02:11;;;;;;;2.97;2.77;;;;;;;3.76;75.24;97355.28;4924904;23;20233;-80
2021/11/27 11:04:44;;;;;;;3.60;2.77;;;;;;;3.71;75.37;97355.19;4919396;23;20217;-81
2021/11/27 11:07:30;;;;;;;3.40;2.63;;;;;;;3.86;74.91;97376.72;4908245;29;20222;-82
2021/11/27 11:10:32;;;;;;;3.00;2.47;;;;;;;3.88;74.68;97380.72;4919139;23;20230;-82
2021/11/27 11:13:09;;;;;;;3.90;3.10;;;;;;;3.85;74.58;97369.81;4936464;23;20301;-82
2021/11/27 11:15:42;;;;;;;3.33;3.03;;;;;;;3.97;74.17;97373.22;4906384;29;20230;-82
2021/11/27 11:18:36;;;;;;;3.50;3.00;;;;;;;4.03;73.78;97369.66;4942686;23;20226;-82
2021/11/27 11:21:09;;;;;;;3.20;2.83;;;;;;;3.84;74.11;97331.91;4935569;23;20235;-82
2021/11/27 11:23:43;;;;;;;3.27;2.90;;;;;;;4.24;73.59;97370.91;4929284;23;20251;-82
2021/11/27 11:26:35;;;;;;;3.20;2.90;;;;;;;4.24;73.61;97376.22;4919944;23;20241;-82
2021/11/27 11:29:04;;;;;;;3.73;3.33;;;;;;;4.19;73.50;97371.63;4917021;29;20234;-82
2021/11/27 11:31:33;;;;;;;3.90;2.93;;;;;;;4.17;73.68;97383.47;4914052;29;20238;-82
2021/11/27 11:34:05;;;;;;;4.43;3.50;;;;;;;4.08;73.70;97372.41;4903036;24;20643;-82
2021/11/27 11:36:56;;;;;;;4.33;3.73;;;;;;;4.06;73.19;97352.50;4900668;29;20249;-82
2021/11/27 11:39:23;;;;;;;4.00;3.60;;;;;;;4.10;73.38;97356.31;4897731;29;20238;-82
2021/11/27 11:41:51;;;;;;;3.97;3.57;;;;;;;4.03;73.71;97329.13;4895988;29;20655;-82
2021/11/27 11:44:19;;;;;;;5.57;3.77;;;;;;;4.11;73.16;97332.19;4896534;29;20290;-81
2021/11/27 11:46:46;;;;;;;5.60;4.07;;;;;;;4.23;73.66;97340.13;4896454;29;20206;-82
2021/11/27 11:49:17;;;;;;;5.77;4.60;;;;;;;4.31;73.54;97335.28;4895262;29;20263;-81
2021/11/27 11:51:56;;;;;;;7.53;5.67;;;;;;;4.33;73.59;97348.28;4894578;29;20285;-82
2021/11/27 11:54:26;;;;;;;6.80;5.30;;;;;;;4.31;73.58;97348.53;4908397;23;20230;-81
2021/11/27 11:57:47;;;;;;;6.80;5.50;;;;;;;4.28;73.87;97333.09;4906495;29;20242;-82
2021/11/27 12:00:50;;;;;;;8.80;6.10;;;;;;;4.42;73.06;97342.38;4913622;23;20219;-82
2021/11/27 12:03:54;;;;;;;6.53;5.33;;;;;;;4.35;73.32;97331.09;4918886;29;20254;-82
2021/11/27 12:06:29;;;;;;;7.90;5.83;;;;;;;4.34;73.89;97318.88;4913534;29;20235;-80
2021/11/27 12:09:21;;;;;;;8.43;5.83;;;;;;;4.47;73.55;97319.66;4916327;29;20309;-81
2021/11/27 12:12:00;;;;;;;8.00;6.10;;;;;;;4.50;73.87;97321.84;4899445;29;20540;-81
2021/11/27 12:14:28;;;;;;;6.60;5.63;;;;;;;4.53;73.88;97316.84;4912952;29;20646;-82
2021/11/27 12:17:04;;;;;;;7.67;6.10;;;;;;;4.58;74.18;97319.59;4918698;23;20262;-82
2021/11/27 12:19:36;;;;;;;7.00;6.30;;;;;;;4.58;73.81;97310.84;4892900;29;20223;-82
2021/11/27 12:22:22;;;;;;;6.33;5.37;;;;;;;4.66;72.69;97303.31;4877020;24;20235;-82
2021/11/27 12:25:23;;;;;;;6.37;5.77;;;;;;;4.60;73.74;97292.84;4892284;29;20232;-82
2021/11/27 12:28:14;;;;;;;7.37;6.23;;;;;;;4.58;74.09;97300.22;4877443;29;20265;-82
2021/11/27 12:30:44;;;;;;;6.90;6.20;;;;;;;4.68;73.77;97305.72;4884369;29;20227;-82
2021/11/27 12:33:51;;;;;;;7.17;6.17;;;;;;;4.98;73.28;97306.28;4895333;29;20244;-82
2021/11/27 12:36:26;;;;;;;5.97;5.37;;;;;;;5.07;72.09;97298.72;4894424;29;20282;-82
2021/11/27 12:39:21;;;;;;;6.77;6.17;;;;;;;5.14;72.87;97294.03;4894146;29;20307;-82
2021/11/27 12:42:26;;;;;;;6.80;6.10;;;;;;;5.09;72.54;97299.25;4895809;29;20267;-82
2021/11/27 12:45:11;;;;;;;6.53;5.77;;;;;;;5.12;72.23;97299.59;4882387;29;20298;-82
2021/11/27 12:47:46;;;;;;;7.87;6.70;;;;;;;5.11;72.66;97289.22;4921031;23;20268;-82
2021/11/27 12:50:37;;;;;;;7.97;7.17;;;;;;;5.06;73.35;97276.66;4890256;29;20218;-83
2021/11/27 12:53:20;;;;;;;7.90;6.90;;;;;;;4.93;73.08;97297.41;4901090;29;20246;-83
2021/11/27 12:56:05;;;;;;;7.57;6.77;;;;;;;4.78;73.92;97282.84;4909773;23;20329;-83
2021/11/27 12:58:46;;;;;;;8.27;6.80;;;;;;;4.56;73.97;97254.59;4909889;23;20241;-81
2021/11/27 13:01:32;;;;;;;9.27;8.20;;;;;;;4.74;74.04;97272.94;4916829;29;20236;-82
2021/11/27 13:04:41;;;;;;;8.90;8.00;;;;;;;4.56;75.05;97297.03;4886985;29;20222;-82
2021/11/27 13:07:31;;;;;;;9.57;8.00;;;;;;;4.42;75.61;97294.66;4931174;23;20234;-82
2021/11/27 13:10:11;;;;;;;9.30;7.90;;;;;;;4.20;75.29;97291.03;4925179;23;20296;-82
2021/11/27 13:16:05;;;;;;;9.80;8.07;;;;;;;4.12;76.41;97298.56;4902749;29;20231;-83
2021/11/27 13:18:46;;;;;;;9.90;7.93;;;;;;;3.79;77.04;97297.38;4920654;23;20258;-82
2021/11/27 13:21:18;;;;;;;10.80;9.40;;;;;;;3.81;77.06;97297.94;4899961;29;20241;-82
2021/11/27 13:23:49;;;;;;;10.13;8.63;;;;;;;3.70;78.06;97304.06;4899852;29;20239;-82
2021/11/27 13:26:31;;;;;;;11.50;9.30;;;;;;;3.64;78.57;97309.50;4918909;23;20238;-82
2021/11/27 13:29:26;;;;;;;12.60;9.37;;;;;;;3.49;78.11;97312.59;4917042;29;20235;-82
2021/11/27 13:32:13;;;;;;;12.33;10.17;;;;;;;3.30;78.98;97295.22;4915679;29;20238;-82
2021/11/27 13:35:12;;;;;;;12.17;9.43;;;;;;;3.31;79.53;97310.84;4902094;29;20635;-82
2021/11/27 13:37:55;;;;;;;13.07;10.03;;;;;;;3.33;79.53;97310.63;4915295;29;20215;-82
2021/11/27 13:40:41;;;;;;;13.07;9.70;;;;;;;3.21;80.14;97310.63;4913782;29;20322;-82
2021/11/27 13:43:12;;;;;;;12.90;10.03;;;;;;;3.15;80.30;97308.06;4873243;29;20304;-82
2021/11/27 13:45:50;;;;;;;14.43;10.60;;;;;;;3.06;81.05;97308.41;4899375;29;20211;-83
2021/11/27 13:48:35;;;;;;;14.33;10.93;;;;;;;3.00;80.86;97319.91;4916942;23;20238;-82
2021/11/27 13:51:26;;;;;;;15.57;11.17;;;;;;;2.78;81.42;97297.66;4902427;29;20299;-82
2021/11/27 13:54:32;;;;;;;15.53;11.73;;;;;;;2.80;82.25;97311.44;4918432;29;20246;-82
2021/11/27 13:57:41;;;;;;;14.23;11.07;;;;;;;2.76;81.94;97309.50;4923564;23;20233;-82
2021/11/27 14:00:56;;;;;;;17.77;12.80;;;;;;;2.75;82.30;97329.88;4920002;29;20253;-82
2021/11/27 14:03:38;;;;;;;19.20;13.27;;;;;;;2.72;82.81;97335.59;4917134;29;20305;-82
2021/11/27 14:06:44;;;;;;;18.47;12.77;;;;;;;2.67;83.40;97316.94;4926203;23;20246;-82
2021/11/27 14:09:18;;;;;;;20.20;13.63;;;;;;;2.76;83.10;97328.00;4918036;29;20242;-82
2021/11/27 14:12:30;;;;;;;20.23;13.10;;;;;;;2.64;82.96;97298.91;4926348;23;20306;-82
2021/11/27 14:15:44;;;;;;;18.57;12.63;;;;;;;2.68;83.10;97326.50;4917349;23;20238;-82
2021/11/27 14:18:43;;;;;;;17.03;12.47;;;;;;;2.61;83.37;97333.72;4907713;24;20235;-82
2021/11/27 14:21:28;;;;;;;18.20;13.43;;;;;;;2.57;83.55;97338.63;4904680;23;20223;-82
2021/11/27 14:24:34;;;;;;;17.50;13.37;;;;;;;2.58;84.18;97337.59;4927625;23;20235;-81
2021/11/27 14:27:19;;;;;;;19.17;13.27;;;;;;;2.35;84.26;97315.56;4899454;23;20226;-82
2021/11/27 14:29:52;;;;;;;20.13;14.20;;;;;;;2.40;84.73;97318.34;4927776;23;20250;-81
2021/11/27 14:35:34;;;;;;;21.30;14.13;;;;;;;2.45;85.10;97337.78;4876874;23;20254;-82
2021/11/27 14:38:05;;;;;;;19.57;14.63;;;;;;;2.43;85.28;97342.47;4881633;23;20223;-82
2021/11/27 14:41:07;;;;;;;22.07;14.53;;;;;;;2.38;85.60;97347.63;4900235;23;20235;-82
2021/11/27 14:44:13;;;;;;;19.90;14.27;;;;;;;2.42;85.31;97346.16;4876453;29;20243;-82
2021/11/27 14:47:18;;;;;;;20.97;14.43;;;;;;;2.38;85.57;97349.47;4873843;29;20230;-81
2021/11/27 14:50:06;;;;;;;20.63;14.47;;;;;;;2.30;85.62;97332.06;4873475;29;20235;-81
2021/11/27 14:55:40;;;;;;;20.43;13.93;;;;;;;2.31;85.67;97343.47;4895191;29;20226;-82
2021/11/27 14:58:17;;;;;;;22.93;14.80;;;;;;;2.28;85.91;97341.28;4895645;29;20215;-82
2021/11/27 15:01:00;;;;;;;21.83;13.87;;;;;;;2.18;86.21;97350.53;4887029;29;20200;-82
2021/11/27 15:03:44;;;;;;;21.33;14.43;;;;;;;2.15;86.72;97345.66;4916824;23;20241;-81
2021/11/27 15:06:21;;;;;;;20.83;14.37;;;;;;;2.25;86.81;97360.19;4921003;23;20237;-81
2021/11/27 15:08:56;;;;;;;22.90;14.43;;;;;;;2.28;86.63;97357.13;4896997;29;20240;-81
2021/11/27 15:11:27;;;;;;;20.80;14.07;;;;;;;2.09;86.38;97351.84;4930285;23;20258;-81
2021/11/27 15:14:03;;;;;;;21.23;15.20;;;;;;;2.36;86.59;97378.75;4944371;23;20242;-81
2021/11/27 15:16:38;;;;;;;22.83;15.30;;;;;;;2.33;86.95;97368.66;4885122;29;20226;-81
2021/11/27 15:19:23;;;;;;;24.73;16.23;;;;;;;2.24;86.49;97375.22;4905453;29;20238;-81
2021/11/27 15:22:03;;;;;;;21.97;14.50;;;;;;;2.18;87.28;97368.22;4915455;29;20238;-81
2021/11/27 15:25:20;;;;;;;22.10;15.10;;;;;;;2.23;87.26;97376.28;4905032;23;20253;31
2021/11/27 15:27:56;;;;;;;21.63;14.50;;;;;;;2.16;86.37;97376.34;4843840;29;20221;-81
2021/11/27 15:30:32;;;;;;;18.90;14.23;;;;;;;2.14;86.72;97377.63;4924868;23;20259;-82
2021/11/27 15:33:13;;;;;;;20.40;14.30;;;;;;;2.15;87.16;97376.56;4916254;29;20234;-81
2021/11/27 15:35:51;;;;;;;20.97;14.53;;;;;;;2.09;87.40;97380.09;4918214;23;20230;-81
2021/11/27 15:38:33;;;;;;;19.97;14.73;;;;;;;2.08;87.47;97386.41;4899360;29;20226;-82
2021/11/27 15:41:01;;;;;;;22.60;14.70;;;;;;;2.05;87.75;97387.63;4895770;29;20631;-81
2021/11/27 15:43:30;;;;;;;20.93;14.30;;;;;;;2.14;87.85;97398.75;4900307;23;20235;-81
2021/11/27 15:45:56;;;;;;;22.77;15.13;;;;;;;2.12;87.67;97398.94;4887575;23;20235;-81
2021/11/27 15:48:24;;;;;;;22.93;14.57;;;;;;;2.10;87.09;97416.06;4907057;23;20215;-81
2021/11/27 15:50:52;;;;;;;24.73;15.83;;;;;;;2.15;87.35;97427.56;4879506;29;20230;-81
2021/11/27 15:53:18;;;;;;;21.87;14.63;;;;;;;2.10;87.49;97431.91;4909206;29;20609;-81
2021/11/27 15:56:06;;;;;;;23.00;15.20;;;;;;;2.03;87.47;97442.53;4894693;29;20250;-81
2021/11/27 15:58:34;;;;;;;21.07;15.40;;;;;;;2.07;87.46;97442.91;4883758;29;20234;-81
2021/11/27 16:01:09;;;;;;;22.37;15.33;;;;;;;1.97;87.91;97443.38;4895008;29;20238;-81
2021/11/27 16:03:37;;;;;;;22.43;15.37;;;;;;;2.00;87.76;97450.09;4885414;23;20631;-81
2021/11/27 16:06:07;;;;;;;23.47;14.93;;;;;;;1.94;88.04;97445.66;4892042;29;20227;-81
2021/11/27 16:08:38;;;;;;;22.93;15.33;;;;;;;1.99;88.14;97459.03;4860891;29;20635;-82
2021/11/27 16:11:07;;;;;;;24.83;16.77;;;;;;;1.97;87.65;97447.88;4891672;29;20230;-82
2021/11/27 16:13:36;;;;;;;22.67;15.90;;;;;;;2.11;87.66;97460.72;4876169;29;20578;-81
2021/11/27 16:16:07;;;;;;;23.17;15.90;;;;;;;2.09;87.65;97460.16;4908141;29;20306;-81
2021/11/27 16:18:36;;;;;;;22.73;15.97;;;;;;;2.01;87.89;97460.41;4893925;29;20238;-82
2021/11/27 16:21:03;;;;;;;23.30;15.53;;;;;;;1.98;87.88;97458.22;4877425;29;20261;-81
2021/11/27 16:23:30;;;;;;;23.67;15.90;;;;;;;2.08;87.71;97468.28;4878237;29;20259;-81
2021/11/27 16:25:57;;;;;;;24.17;16.27;;;;;;;2.02;87.76;97472.59;4895338;29;20250;-81
2021/11/27 16:28:25;;;;;;;27.77;17.40;;;;;;;2.01;87.91;97472.81;4881934;29;20256;-82
2021/11/27 16:30:52;;;;;;;21.50;15.67;;;;;;;2.11;88.01;97476.59;4912117;29;20226;-81
2021/11/27 16:33:19;;;;;;;23.20;14.93;;;;;;;2.09;86.63;97486.56;4895554;29;20230;-82
2021/11/27 16:35:47;;;;;;;20.67;13.87;;;;;;;2.02;87.01;97490.28;4909953;29;20245;-81
2021/11/27 16:38:14;;;;;;;22.03;15.33;;;;;;;2.02;86.97;97491.09;4912732;29;20244;-81
2021/11/27 16:40:42;;;;;;;22.87;15.87;;;;;;;2.09;86.88;97507.72;4916074;29;20651;-81
2021/11/27 16:43:13;;;;;;;25.80;18.03;;;;;;;1.98;87.09;97508.41;4897375;29;20266;-82
2021/11/27 16:45:40;;;;;;;24.90;20.03;;;;;;;1.99;87.66;97509.22;4910613;29;20517;-81
2021/11/27 16:48:07;;;;;;;23.77;15.93;;;;;;;1.98;87.65;97521.59;4888802;29;20226;-82
2021/11/27 16:50:34;;;;;;;22.57;16.73;;;;;;;1.90;87.90;97518.44;4891180;29;20317;-81
2021/11/27 16:53:02;;;;;;;25.43;19.43;;;;;;;2.04;87.48;97519.94;4892587;29;20233;-82
2021/11/27 16:55:29;;;;;;;27.83;21.93;;;;;;;1.94;87.26;97535.47;4891055;29;20254;-81
2021/11/27 16:57:59;;;;;;;27.00;18.67;;;;;;;1.96;87.46;97526.28;4892351;29;20258;-82
2021/11/27 17:00:27;;;;;;;25.27;17.63;;;;;;;2.06;87.59;97546.94;4924281;23;20678;-82
2021/11/27 17:02:55;;;;;;;26.73;16.57;;;;;;;2.02;88.09;97551.03;4916932;29;20229;-81
2021/11/27 17:05:33;;;;;;;23.97;16.67;;;;;;;1.95;87.86;97543.19;4915852;29;20289;-82
2021/11/27 17:08:01;;;;;;;22.37;16.30;;;;;;;1.97;87.88;97540.31;4915022;29;20224;-81
2021/11/27 17:10:29;;;;;;;22.50;16.43;;;;;;;2.01;88.11;97559.97;4917083;29;20380;-81
2021/11/27 17:12:59;;;;;;;21.83;15.70;;;;;;;1.93;87.42;97555.78;4931230;23;20223;-83